Time;durP1;ratioP1;P1;durP2;ratioP2;P2;SDS_P1;SDS_P2;PMS_P1;PMS_P2;Temp;Humidity;BMP_temperature;BMP_pressure;BME280_temperature;BME280_humidity;BME280_pressure;Samples;Min_cycle;Max_cycle;Signal;HPM_P1;HPM_P2
2021/12/12 00:00:31;;;;;;;3.83;2.33;;;;;;;22.38;34.91;99955.33;1914293;73;28005;-76
2021/12/12 00:03:32;;;;;;;5.55;2.60;;;;;;;22.34;34.94;99955.99;1903103;73;27886;-75
2021/12/12 00:06:20;;;;;;;6.10;2.45;;;;;;;22.31;35.00;99960.56;1887472;75;28047;-77
2021/12/12 00:09:24;;;;;;;5.30;2.50;;;;;;;22.31;35.00;99959.20;1895010;73;28062;-75
2021/12/12 00:12:18;;;;;;;4.67;2.60;;;;;;;22.29;35.07;99955.29;1887871;75;28027;-73
2021/12/12 00:15:09;;;;;;;4.90;2.50;;;;;;;22.31;34.99;99960.02;1891528;75;28106;-73
2021/12/12 00:17:57;;;;;;;5.95;2.58;;;;;;;22.27;34.93;99960.67;1901947;73;27925;-73
2021/12/12 00:20:48;;;;;;;4.67;2.58;;;;;;;22.30;34.96;99957.50;1924046;73;27934;-75
2021/12/12 00:23:36;;;;;;;3.00;2.50;;;;;;;22.31;35.00;99956.45;1880882;75;28028;-74
2021/12/12 00:26:25;;;;;;;2.83;2.50;;;;;;;22.32;34.98;99956.22;1934736;73;27980;-75
2021/12/12 00:29:16;;;;;;;3.65;2.30;;;;;;;22.32;35.03;99958.96;1912420;73;32994;-75
2021/12/12 00:32:08;;;;;;;3.98;2.47;;;;;;;22.28;34.89;99965.95;1933979;73;27897;-75
2021/12/12 00:35:01;;;;;;;3.65;2.20;;;;;;;22.28;34.95;99969.20;1892908;75;28091;-74
2021/12/12 00:37:53;;;;;;;3.42;2.10;;;;;;;22.31;34.87;99966.85;1889363;75;28073;-75
2021/12/12 00:40:44;;;;;;;3.95;2.20;;;;;;;22.29;34.97;99970.34;1912960;73;27916;-75
2021/12/12 00:43:39;;;;;;;4.22;2.10;;;;;;;22.25;34.96;99969.12;1934133;73;28039;-75
2021/12/12 00:46:28;;;;;;;4.97;2.17;;;;;;;22.25;34.97;99975.95;1879839;75;28096;-75
2021/12/12 00:49:19;;;;;;;2.27;2.00;;;;;;;22.26;34.96;99983.64;1828687;77;28261;-74
2021/12/12 00:52:10;;;;;;;2.67;1.90;;;;;;;22.25;34.89;99984.69;1859822;76;28132;-75
2021/12/12 00:55:00;;;;;;;2.22;1.95;;;;;;;22.21;34.90;99984.83;1935545;73;27900;-75
2021/12/12 00:57:55;;;;;;;3.15;2.00;;;;;;;22.24;34.84;99987.14;1893248;75;28527;-74
2021/12/12 01:00:43;;;;;;;2.45;2.25;;;;;;;22.22;34.89;99990.08;1889442;75;28116;-74
2021/12/12 01:03:35;;;;;;;2.42;2.00;;;;;;;22.20;34.93;99994.09;1914737;73;28200;-74
2021/12/12 01:06:25;;;;;;;2.87;2.00;;;;;;;22.18;34.88;99986.11;1937916;73;28086;-74
2021/12/12 01:09:19;;;;;;;2.58;1.92;;;;;;;22.20;34.82;99973.56;1917909;73;28041;-78
2021/12/12 01:12:10;;;;;;;6.40;2.30;;;;;;;22.18;34.84;99977.90;1906220;75;28126;-70
2021/12/12 01:15:07;;;;;;;2.72;2.08;;;;;;;22.05;35.23;99981.25;1884107;75;28512;-71
2021/12/12 01:17:58;;;;;;;4.77;2.27;;;;;;;21.70;35.60;99991.70;1903858;75;28108;-71
2021/12/12 01:21:10;;;;;;;3.60;2.30;;;;;;;21.28;36.23;99995.84;1895235;73;28074;-71
2021/12/12 01:23:59;;;;;;;4.90;2.50;;;;;;;21.02;36.73;100002.16;1908629;74;28035;-71
2021/12/12 01:26:48;;;;;;;4.03;2.17;;;;;;;20.75;37.29;100007.30;1896005;75;28186;-70
2021/12/12 01:29:38;;;;;;;3.85;2.15;;;;;;;20.56;37.64;100006.23;1877499;75;28248;-71
2021/12/12 01:32:32;;;;;;;5.00;2.20;;;;;;;20.41;38.01;100006.97;1853406;77;28180;-71
2021/12/12 01:35:21;;;;;;;3.92;2.00;;;;;;;20.33;38.22;100012.61;1898047;75;28136;-72
2021/12/12 01:41:18;;;;;;;7.05;2.17;;;;;;;20.16;38.62;100020.85;1867788;76;28195;-73
2021/12/12 01:44:24;;;;;;;3.55;2.22;;;;;;;20.10;38.78;100022.17;1875798;75;28093;-72
2021/12/12 01:47:15;;;;;;;4.25;2.30;;;;;;;20.04;38.97;100021.64;1896721;75;28147;-71
2021/12/12 01:50:06;;;;;;;3.92;2.08;;;;;;;19.99;39.09;100027.71;1896792;75;28051;-72
2021/12/12 01:52:59;;;;;;;4.28;2.30;;;;;;;19.95;39.23;100034.08;1896756;75;28041;-74
2021/12/12 01:55:58;;;;;;;6.30;2.30;;;;;;;19.93;39.30;100045.72;1894860;75;28555;-71
2021/12/12 01:58:54;;;;;;;2.72;1.90;;;;;;;19.94;39.26;100039.75;1865979;76;28155;-73
2021/12/12 02:01:48;;;;;;;3.98;2.00;;;;;;;19.90;39.40;100043.42;1891452;75;28069;-71
2021/12/12 02:04:40;;;;;;;3.52;2.08;;;;;;;19.90;39.47;100045.30;1898802;75;28059;-71
2021/12/12 02:07:31;;;;;;;3.80;2.33;;;;;;;19.88;39.46;100047.39;1896492;75;28113;-72
2021/12/12 02:10:23;;;;;;;4.72;2.40;;;;;;;19.90;39.48;100055.69;1895788;75;32910;-72
2021/12/12 02:13:15;;;;;;;5.35;2.10;;;;;;;19.88;39.58;100056.38;1893380;75;28020;-72
2021/12/12 02:16:07;;;;;;;4.35;2.08;;;;;;;19.89;39.52;100065.41;1900095;75;28087;-72
2021/12/12 02:18:58;;;;;;;4.30;2.10;;;;;;;19.91;39.52;100061.44;1899906;75;28032;-72
2021/12/12 02:22:08;;;;;;;3.20;1.95;;;;;;;19.90;39.50;100060.30;1896279;73;28143;-71
2021/12/12 02:37:18;;;;;;;5.55;2.08;;;;;;;19.84;39.74;100073.35;1898027;75;31034;-71
2021/12/12 02:40:12;;;;;;;5.22;2.00;;;;;;;19.83;39.74;100067.09;1897568;75;28047;-71
2021/12/12 02:43:02;;;;;;;3.42;2.02;;;;;;;19.87;39.71;100069.72;1897249;75;28185;-72
2021/12/12 02:45:55;;;;;;;2.65;2.02;;;;;;;19.89;39.73;100080.41;1896081;75;27990;-72
2021/12/12 02:48:46;;;;;;;5.22;2.22;;;;;;;19.91;39.72;100078.31;1894211;75;28139;-71
2021/12/12 02:51:38;;;;;;;4.78;2.17;;;;;;;19.90;39.74;100078.86;1900902;75;27947;-72
2021/12/12 02:54:27;;;;;;;4.23;1.93;;;;;;;19.88;39.75;100079.56;1900703;75;28130;-71
2021/12/12 02:57:17;;;;;;;3.90;1.83;;;;;;;19.90;39.68;100078.02;1895989;75;28136;-71
2021/12/12 03:00:09;;;;;;;10.67;3.80;;;;;;;19.90;39.69;100068.47;1898936;75;28127;-72
2021/12/12 03:03:00;;;;;;;5.08;2.42;;;;;;;19.92;39.61;100080.02;1898973;75;28139;-72
2021/12/12 03:05:50;;;;;;;7.73;2.60;;;;;;;19.96;39.60;100085.38;1897614;75;28070;-71
2021/12/12 03:08:41;;;;;;;6.97;2.80;;;;;;;19.95;39.51;100080.98;1903992;75;27980;-72
2021/12/12 03:11:29;;;;;;;5.30;2.43;;;;;;;19.96;39.55;100086.73;1876131;75;28066;-71
2021/12/12 03:14:19;;;;;;;7.53;2.70;;;;;;;19.96;39.59;100093.55;1897331;75;28083;-73
2021/12/12 03:17:10;;;;;;;6.78;2.70;;;;;;;19.97;39.57;100079.73;1894931;75;28041;-74
2021/12/12 03:20:02;;;;;;;8.00;2.95;;;;;;;19.93;39.59;100085.25;1878958;75;28037;-73
2021/12/12 03:22:59;;;;;;;6.95;2.80;;;;;;;19.96;39.60;100089.46;1900503;74;27995;-71
2021/12/12 03:25:52;;;;;;;5.75;2.67;;;;;;;19.95;39.62;100091.34;1900919;75;31876;-72
2021/12/12 03:28:44;;;;;;;8.80;5.20;;;;;;;19.97;39.56;100087.06;1900166;75;28061;-71
2021/12/12 03:31:35;;;;;;;9.23;6.62;;;;;;;19.97;39.61;100089.80;1896627;75;28046;-72
2021/12/12 03:34:27;;;;;;;10.32;8.68;;;;;;;19.97;39.47;100091.16;1868156;76;28161;-72
2021/12/12 03:37:18;;;;;;;18.12;16.57;;;;;;;19.94;39.60;100087.47;1920332;73;28079;-72
2021/12/12 03:40:13;;;;;;;34.57;32.00;;;;;;;19.96;39.50;100082.64;1893401;75;28581;-73
2021/12/12 03:43:03;;;;;;;87.88;82.10;;;;;;;19.97;39.53;100090.64;1897129;75;28078;-73
2021/12/12 03:45:52;;;;;;;298.47;279.53;;;;;;;19.96;39.50;100093.55;1868190;76;28157;-71
2021/12/12 03:48:43;;;;;;;165.57;155.30;;;;;;;19.96;39.53;100099.00;1892709;75;28087;-72
2021/12/12 03:51:33;;;;;;;204.53;191.87;;;;;;;19.97;39.51;100096.61;1894376;75;28113;-71
2021/12/12 03:54:23;;;;;;;215.43;202.00;;;;;;;19.97;39.45;100100.70;1900924;75;28153;-71
2021/12/12 03:57:12;;;;;;;261.13;244.80;;;;;;;19.98;39.50;100101.00;1878584;75;28079;-71
2021/12/12 04:00:01;;;;;;;296.37;277.50;;;;;;;19.96;39.52;100099.00;1897703;75;28092;-71
2021/12/12 04:02:52;;;;;;;320.90;300.68;;;;;;;19.95;39.50;100096.80;1897789;75;28070;-72
2021/12/12 04:05:42;;;;;;;155.93;146.25;;;;;;;19.95;39.47;100095.42;1897047;75;28170;-72
2021/12/12 04:08:34;;;;;;;219.43;205.80;;;;;;;19.99;39.39;100100.82;1877804;75;28017;-71
2021/12/12 04:11:25;;;;;;;198.80;186.37;;;;;;;20.00;39.40;100103.00;1897602;75;28152;-73
2021/12/12 04:14:16;;;;;;;327.27;306.32;;;;;;;20.00;39.43;100107.09;1897667;75;28129;-71
2021/12/12 04:17:07;;;;;;;340.18;318.73;;;;;;;19.98;39.47;100118.72;1897160;75;28098;-71
2021/12/12 04:19:58;;;;;;;38.87;36.20;;;;;;;19.97;39.49;100117.06;1878734;75;28058;-71
2021/12/12 04:22:47;;;;;;;86.63;81.20;;;;;;;19.98;39.53;100111.91;1896136;74;28079;-73
2021/12/12 04:25:36;;;;;;;114.92;107.40;;;;;;;19.97;39.53;100117.06;1894114;75;28085;-72
2021/12/12 04:28:24;;;;;;;115.10;107.85;;;;;;;19.98;39.46;100116.00;1893526;75;29298;-73
2021/12/12 04:31:13;;;;;;;110.30;103.15;;;;;;;19.98;39.50;100116.84;1897504;75;28064;-72
2021/12/12 04:34:02;;;;;;;89.75;84.05;;;;;;;19.97;39.53;100128.81;1897533;75;28085;-72
2021/12/12 04:36:51;;;;;;;72.53;67.90;;;;;;;19.99;39.45;100119.91;1890713;75;28122;-72
2021/12/12 04:39:43;;;;;;;46.05;42.62;;;;;;;19.97;39.49;100111.61;1891595;75;28018;-72
2021/12/12 04:42:35;;;;;;;48.92;45.40;;;;;;;19.95;39.48;100113.16;1874435;75;28069;-72
2021/12/12 04:45:43;;;;;;;56.70;52.93;;;;;;;20.00;39.52;100111.17;1894201;75;28129;-73
2021/12/12 04:51:59;;;;;;;233.33;218.33;;;;;;;19.98;39.51;100111.91;1894753;75;28051;-72
2021/12/12 04:55:00;;;;;;;130.20;121.85;;;;;;;19.93;39.66;100108.42;1893976;75;28137;-72
2021/12/12 04:58:01;;;;;;;516.23;483.70;;;;;;;19.93;39.57;100108.42;1893984;75;28057;-72
2021/12/12 05:00:55;;;;;;;973.93;913.67;;;;;;;19.94;39.66;100109.27;1883099;75;28209;-71
2021/12/12 05:03:58;;;;;;;958.62;899.58;;;;;;;19.96;39.63;100114.84;1889791;75;28178;-72
2021/12/12 05:07:45;;;;;;;366.77;343.25;;;;;;;19.99;39.54;100120.42;1928059;72;28025;-70
2021/12/12 05:10:54;;;;;;;249.42;233.80;;;;;;;19.98;39.55;100120.09;1875056;75;28095;-72
2021/12/12 05:13:45;;;;;;;330.65;309.37;;;;;;;19.98;39.56;100116.00;1858262;76;28256;-73
2021/12/12 05:16:38;;;;;;;381.13;356.60;;;;;;;19.97;39.60;100121.16;1890109;75;28088;-72
2021/12/12 05:19:29;;;;;;;474.58;443.52;;;;;;;19.97;39.58;100121.16;1868771;75;28109;-71
2021/12/12 05:22:21;;;;;;;411.32;384.27;;;;;;;19.97;39.51;100126.09;1868667;75;28292;-72
2021/12/12 05:25:12;;;;;;;953.75;894.77;;;;;;;19.98;39.57;100138.66;1871356;75;28187;-71
2021/12/12 05:28:03;;;;;;;379.93;356.10;;;;;;;19.99;39.51;100134.05;1858252;76;28224;-71
2021/12/12 05:30:53;;;;;;;978.25;917.98;;;;;;;19.96;39.52;100142.63;1858011;76;28266;-72
2021/12/12 05:33:42;;;;;;;364.98;341.68;;;;;;;19.97;39.54;100154.72;1858344;76;28291;-72
2021/12/12 05:36:34;;;;;;;8.38;6.97;;;;;;;19.98;39.63;100146.84;1858428;76;28210;-72
2021/12/12 05:39:26;;;;;;;12.85;5.37;;;;;;;19.96;39.66;100151.66;1858156;76;28137;-72
2021/12/12 05:42:16;;;;;;;21.30;19.20;;;;;;;19.98;39.66;100162.36;1858252;76;28265;-73
2021/12/12 05:45:07;;;;;;;29.32;26.97;;;;;;;19.97;39.63;100165.63;1858100;76;28216;-73
2021/12/12 05:47:55;;;;;;;42.95;39.83;;;;;;;19.96;39.62;100165.30;1858137;76;31135;-73
2021/12/12 05:50:45;;;;;;;25.63;23.67;;;;;;;19.97;39.60;100169.72;1858270;76;28139;-72
2021/12/12 05:53:33;;;;;;;46.25;42.88;;;;;;;19.99;39.50;100161.33;1862007;75;34095;-73
2021/12/12 05:56:27;;;;;;;12.87;11.23;;;;;;;19.98;39.50;100172.75;1866036;75;28255;-73
2021/12/12 05:59:16;;;;;;;22.98;21.12;;;;;;;20.00;39.48;100175.26;1877961;75;28636;-72
2021/12/12 06:02:06;;;;;;;16.10;9.45;;;;;;;19.99;39.51;100179.05;1858336;76;28661;-72
2021/12/12 06:04:59;;;;;;;16.30;14.83;;;;;;;19.97;39.52;100184.72;1823145;78;28291;-72
2021/12/12 06:08:08;;;;;;;12.65;11.45;;;;;;;19.97;39.52;100186.59;1858250;76;28165;-72
2021/12/12 06:10:57;;;;;;;17.17;15.63;;;;;;;19.96;39.55;100201.25;1879912;75;28157;-73
2021/12/12 06:13:47;;;;;;;226.17;211.90;;;;;;;19.97;39.41;100202.44;1876585;75;28075;-72
2021/12/12 06:16:38;;;;;;;127.05;118.77;;;;;;;19.99;39.45;100196.77;1858180;76;28275;-72
2021/12/12 06:19:27;;;;;;;579.23;543.13;;;;;;;19.95;39.53;100197.68;1854526;77;28155;-72
2021/12/12 06:22:16;;;;;;;1028.95;965.75;;;;;;;19.96;39.50;100202.11;1875555;75;28200;-72
2021/12/12 06:25:07;;;;;;;951.77;893.35;;;;;;;19.95;39.57;100208.59;1875612;75;28253;-72
2021/12/12 06:27:55;;;;;;;6.72;2.80;;;;;;;19.97;39.52;100211.13;1857569;77;28302;-73
2021/12/12 06:30:46;;;;;;;5.42;2.25;;;;;;;19.95;39.54;100207.22;1857607;77;28136;-72
2021/12/12 06:33:37;;;;;;;9.35;3.27;;;;;;;19.94;39.58;100204.70;1859778;75;28171;-71
2021/12/12 06:36:28;;;;;;;8.08;3.02;;;;;;;19.95;39.66;100204.50;1871319;75;28143;-71
2021/12/12 06:39:18;;;;;;;7.25;2.35;;;;;;;19.96;39.68;100207.56;1870297;75;28245;-71
2021/12/12 06:42:08;;;;;;;3.70;1.80;;;;;;;20.01;39.64;100219.23;1867962;75;28116;-72
2021/12/12 06:44:57;;;;;;;3.35;2.67;;;;;;;19.99;39.52;100233.07;1866494;75;32071;-73
2021/12/12 06:47:46;;;;;;;3.30;2.90;;;;;;;19.14;33.84;100239.11;1874466;75;28047;-70
2021/12/12 06:50:38;;;;;;;2.80;2.50;;;;;;;18.28;32.55;100243.69;1857832;76;28244;-69
2021/12/12 06:53:30;;;;;;;1.80;1.70;;;;;;;18.34;34.35;100248.39;1857418;77;28164;-69
2021/12/12 06:56:20;;;;;;;1.90;1.70;;;;;;;18.50;36.15;100242.27;1857372;77;28133;-69
2021/12/12 06:59:10;;;;;;;1.60;1.50;;;;;;;18.61;36.95;100249.93;1875110;75;28463;-69
2021/12/12 07:01:59;;;;;;;1.57;1.47;;;;;;;18.70;37.48;100250.66;1857701;76;28116;-68
2021/12/12 07:04:50;;;;;;;1.60;1.50;;;;;;;18.78;37.83;100241.55;1857677;77;28224;-68
2021/12/12 07:07:39;;;;;;;1.80;1.70;;;;;;;18.86;38.03;100242.26;1856936;75;30187;-68
2021/12/12 07:10:30;;;;;;;1.55;1.45;;;;;;;18.94;38.09;100248.11;1845304;77;28133;-67
2021/12/12 07:13:19;;;;;;;1.40;1.30;;;;;;;18.99;38.18;100245.66;1857718;77;28169;-67
2021/12/12 07:16:08;;;;;;;1.50;1.40;;;;;;;19.09;38.17;100259.27;1857687;77;28106;-68
2021/12/12 07:18:59;;;;;;;2.50;1.77;;;;;;;19.16;38.33;100260.73;1862197;75;28147;-68
2021/12/12 07:21:47;;;;;;;1.75;1.62;;;;;;;19.20;38.42;100265.59;1874842;75;28112;-68
2021/12/12 07:24:37;;;;;;;2.10;1.55;;;;;;;19.28;38.36;100268.69;1857476;77;28106;-68
2021/12/12 07:27:25;;;;;;;1.50;1.40;;;;;;;19.31;38.41;100279.20;1857530;77;28268;-69
2021/12/12 07:30:13;;;;;;;1.47;1.32;;;;;;;19.35;38.45;100279.12;1857052;76;28438;-69
2021/12/12 07:33:04;;;;;;;2.75;1.98;;;;;;;19.40;38.38;100288.11;1857420;77;28097;-69
2021/12/12 07:35:56;;;;;;;1.77;1.65;;;;;;;19.42;38.37;100299.69;1853249;77;28687;-69
2021/12/12 07:38:50;;;;;;;15.07;2.20;;;;;;;19.42;38.43;100301.87;1874828;75;28118;-67
2021/12/12 07:41:39;;;;;;;2.15;1.27;;;;;;;19.48;38.42;100311.16;1879855;75;28046;-67
2021/12/12 07:44:33;;;;;;;3.80;1.40;;;;;;;19.56;38.04;100315.95;1871923;75;28217;-68
2021/12/12 07:47:23;;;;;;;1.50;1.30;;;;;;;19.61;38.04;100318.09;1869475;75;28047;-68
2021/12/12 07:50:15;;;;;;;1.32;1.22;;;;;;;19.67;37.98;100324.98;1861235;75;28091;-67
2021/12/12 07:53:06;;;;;;;1.82;1.70;;;;;;;19.76;37.91;100332.50;1881200;75;28095;-66
2021/12/12 07:56:13;;;;;;;1.55;1.45;;;;;;;19.80;37.84;100329.19;1882993;75;28102;-75
2021/12/12 07:59:05;;;;;;;1.32;1.30;;;;;;;19.83;37.81;100335.62;1873801;75;28079;-75
2021/12/12 08:01:53;;;;;;;1.95;1.30;;;;;;;19.85;37.85;100340.35;1856883;77;28148;-75
2021/12/12 08:04:45;;;;;;;2.08;1.27;;;;;;;19.90;37.76;100346.58;1856928;77;28233;-74
2021/12/12 08:07:34;;;;;;;2.03;1.20;;;;;;;19.92;37.75;100343.98;1856370;77;28139;-74
2021/12/12 08:10:23;;;;;;;3.45;1.20;;;;;;;19.97;37.71;100344.75;1866986;75;28073;-74
2021/12/12 08:13:14;;;;;;;1.90;1.30;;;;;;;20.00;37.61;100349.27;1856711;77;28170;-75
2021/12/12 08:16:09;;;;;;;1.50;1.40;;;;;;;20.06;37.53;100354.47;1856425;77;28260;-74
2021/12/12 08:18:59;;;;;;;1.55;1.30;;;;;;;20.06;37.51;100354.98;1856076;77;28252;-74
2021/12/12 08:21:49;;;;;;;1.35;1.25;;;;;;;20.07;37.53;100352.59;1850384;77;28117;-74
2021/12/12 08:24:40;;;;;;;1.30;1.20;;;;;;;20.07;37.47;100352.05;1857479;77;28139;-74
2021/12/12 08:27:30;;;;;;;1.62;1.52;;;;;;;20.08;37.46;100356.48;1857527;77;28130;-74
2021/12/12 08:30:20;;;;;;;1.32;1.22;;;;;;;20.06;37.48;100359.92;1857541;77;28175;-75
2021/12/12 08:33:09;;;;;;;1.45;1.35;;;;;;;20.11;37.45;100363.42;1857573;77;28313;-74
2021/12/12 08:35:59;;;;;;;1.30;1.20;;;;;;;20.10;37.43;100370.76;1857503;77;28169;-76
2021/12/12 08:38:48;;;;;;;1.40;1.30;;;;;;;20.13;37.42;100363.55;1857533;77;28236;-75
2021/12/12 08:41:38;;;;;;;1.98;1.20;;;;;;;20.11;37.42;100361.55;1855859;75;28051;-75
2021/12/12 08:44:29;;;;;;;1.80;1.27;;;;;;;20.11;37.44;100362.91;1872210;75;28151;-74
2021/12/12 08:47:19;;;;;;;1.40;1.05;;;;;;;20.13;37.40;100367.64;1857401;77;28159;-75
2021/12/12 08:50:12;;;;;;;1.55;1.30;;;;;;;20.14;37.37;100369.31;1857618;77;28106;-74
2021/12/12 08:53:03;;;;;;;1.13;1.13;;;;;;;20.15;37.38;100374.25;1887270;75;28099;-74
2021/12/12 08:55:55;;;;;;;2.00;1.30;;;;;;;20.18;37.38;100379.33;1871442;75;28103;-74
2021/12/12 08:58:44;;;;;;;1.30;1.20;;;;;;;20.16;37.30;100375.44;1857559;77;28185;-77
2021/12/12 09:01:33;;;;;;;1.40;0.90;;;;;;;20.16;37.37;100379.53;1878921;75;28098;-77
2021/12/12 09:04:22;;;;;;;1.20;1.10;;;;;;;20.15;37.40;100381.92;1878786;75;28134;-77
2021/12/12 09:07:29;;;;;;;1.47;1.22;;;;;;;20.16;37.42;100386.87;1875686;75;29127;-74
2021/12/12 09:10:26;;;;;;;1.30;1.30;;;;;;;20.18;37.39;100386.14;1830181;77;28304;-74
2021/12/12 09:13:22;;;;;;;1.00;1.00;;;;;;;20.14;37.47;100389.77;1858374;76;28239;-74
2021/12/12 09:16:23;;;;;;;1.00;1.00;;;;;;;20.14;37.46;100395.77;1858144;76;28153;-74
2021/12/12 09:19:16;;;;;;;1.37;1.20;;;;;;;20.15;37.49;100393.34;1879942;75;28185;-75
2021/12/12 09:22:08;;;;;;;1.02;1.02;;;;;;;20.13;37.50;100399.02;1879562;75;30107;-74
2021/12/12 09:25:14;;;;;;;1.30;1.20;;;;;;;20.19;37.44;100405.55;1874920;75;28132;-75
2021/12/12 09:28:10;;;;;;;1.20;1.20;;;;;;;20.13;37.51;100402.25;1858285;76;28184;-74
2021/12/12 09:31:05;;;;;;;1.30;1.20;;;;;;;20.12;37.62;100404.13;1859330;76;28708;-76
2021/12/12 09:34:07;;;;;;;1.17;1.17;;;;;;;20.15;37.55;100406.98;1858049;76;28454;-76
2021/12/12 09:36:58;;;;;;;1.20;1.20;;;;;;;20.16;37.54;100404.59;1859758;76;28103;-76
2021/12/12 09:39:50;;;;;;;1.75;1.20;;;;;;;20.15;37.58;100408.35;1857624;76;28197;-76
2021/12/12 09:42:45;;;;;;;2.87;1.15;;;;;;;20.18;37.56;100405.23;1872418;75;28070;-74
2021/12/12 09:45:40;;;;;;;1.12;1.07;;;;;;;20.17;37.52;100408.48;1868037;75;28063;-74
2021/12/12 09:52:20;;;;;;;1.77;1.00;;;;;;;20.20;37.53;100413.55;1870403;75;28068;-74
2021/12/12 09:55:35;;;;;;;1.20;1.10;;;;;;;20.17;37.57;100409.84;1869509;75;28159;-76
2021/12/12 09:58:27;;;;;;;1.35;1.25;;;;;;;20.12;37.61;100416.95;1884776;75;28184;-76
2021/12/12 10:01:22;;;;;;;1.62;1.22;;;;;;;20.13;37.64;100409.92;1875890;75;38432;-75
2021/12/12 10:04:25;;;;;;;1.10;1.10;;;;;;;20.17;37.60;100415.30;1858339;76;28107;-75
2021/12/12 10:07:37;;;;;;;1.25;1.10;;;;;;;20.18;37.57;100408.81;1857456;76;28111;-75
2021/12/12 10:10:38;;;;;;;1.13;1.13;;;;;;;20.17;37.57;100414.45;1875863;75;28078;-75
2021/12/12 10:13:33;;;;;;;1.40;1.30;;;;;;;20.15;37.58;100419.27;1893865;75;28160;-74
2021/12/12 10:16:24;;;;;;;1.10;1.10;;;;;;;20.16;37.58;100415.51;1870344;75;28029;-74
2021/12/12 10:19:33;;;;;;;1.40;1.00;;;;;;;20.16;37.55;100417.72;1885019;75;28240;-75
2021/12/12 10:22:36;;;;;;;1.15;1.10;;;;;;;20.17;37.57;100419.91;1880378;75;27995;-74
2021/12/12 10:25:28;;;;;;;1.10;1.10;;;;;;;20.15;37.58;100419.27;1880458;75;28161;-74
2021/12/12 10:28:36;;;;;;;1.45;1.10;;;;;;;20.15;37.61;100420.11;1874338;75;38416;-75
2021/12/12 10:31:37;;;;;;;1.02;1.02;;;;;;;20.19;37.60;100411.85;1855751;76;28099;-75
2021/12/12 10:34:30;;;;;;;1.17;1.07;;;;;;;20.16;37.58;100412.27;1870790;75;28150;-75
2021/12/12 10:37:28;;;;;;;1.20;1.20;;;;;;;20.17;37.57;100418.03;1871123;75;28119;-75
2021/12/12 10:40:19;;;;;;;1.42;1.10;;;;;;;20.16;37.57;100415.00;1871147;75;28181;-75
2021/12/12 10:43:12;;;;;;;1.10;1.10;;;;;;;20.20;37.51;100409.46;1872538;75;28251;-74
2021/12/12 10:46:09;;;;;;;1.10;1.10;;;;;;;20.21;37.51;100414.41;1859929;76;28184;-75
2021/12/12 10:49:13;;;;;;;1.02;1.02;;;;;;;20.20;37.48;100413.55;1872730;75;28099;-75
2021/12/12 10:52:16;;;;;;;1.13;1.03;;;;;;;20.16;37.52;100410.91;1871045;75;28129;-75
2021/12/12 10:55:08;;;;;;;1.00;1.00;;;;;;;20.20;37.48;100403.16;1867642;75;30951;-75
2021/12/12 10:57:59;;;;;;;1.00;1.00;;;;;;;20.17;37.58;100406.27;1868260;75;28221;-76
2021/12/12 11:00:51;;;;;;;1.10;1.10;;;;;;;20.20;37.53;100402.64;1871509;75;28221;-75
2021/12/12 11:03:51;;;;;;;1.10;1.10;;;;;;;20.22;37.48;100409.28;1853398;76;28143;-76
2021/12/12 11:06:46;;;;;;;1.25;1.12;;;;;;;20.20;37.48;100394.97;1879828;75;28122;-75
2021/12/12 11:09:40;;;;;;;1.10;1.10;;;;;;;20.19;37.47;100397.36;1883167;75;28231;-75
2021/12/12 11:12:39;;;;;;;1.15;1.02;;;;;;;20.21;37.47;100392.03;1880901;75;28173;-74
2021/12/12 11:15:30;;;;;;;1.00;1.00;;;;;;;20.21;37.41;100388.48;1870878;75;28224;-75
2021/12/12 11:18:30;;;;;;;1.30;1.02;;;;;;;20.20;37.50;100386.27;1860144;76;28114;-75
2021/12/12 11:21:27;;;;;;;1.50;1.27;;;;;;;20.20;37.44;100384.91;1836857;75;28598;-75
2021/12/12 11:24:25;;;;;;;1.00;1.00;;;;;;;20.19;37.45;100381.84;1889439;75;28031;-76
2021/12/12 11:27:33;;;;;;;0.90;0.90;;;;;;;20.18;37.47;100382.91;1867951;75;28070;-75
2021/12/12 11:30:29;;;;;;;1.15;1.05;;;;;;;20.18;37.56;100373.87;1863949;75;28139;-75
2021/12/12 11:33:20;;;;;;;1.10;1.00;;;;;;;20.17;37.49;100381.20;1877764;75;28088;-74
2021/12/12 11:36:14;;;;;;;0.90;0.90;;;;;;;20.20;37.46;100383.55;1874077;75;28170;-75
2021/12/12 11:39:14;;;;;;;1.40;1.10;;;;;;;20.16;37.48;100367.77;1878771;75;28079;-75
2021/12/12 11:42:06;;;;;;;1.33;1.10;;;;;;;20.21;37.43;100374.30;1864924;75;28149;-75
2021/12/12 11:45:05;;;;;;;1.15;1.00;;;;;;;20.23;37.43;100375.52;1868338;75;28109;-75
2021/12/12 11:48:09;;;;;;;1.25;1.20;;;;;;;20.24;37.41;100372.59;1868870;75;28177;-75
2021/12/12 11:51:12;;;;;;;0.90;0.90;;;;;;;20.22;37.41;100373.82;1889340;75;28056;-75
2021/12/12 11:54:09;;;;;;;1.17;1.17;;;;;;;20.21;37.46;100368.03;1857496;76;28236;-74
2021/12/12 11:57:07;;;;;;;1.00;1.00;;;;;;;20.20;37.45;100363.60;1869136;75;28156;-76
2021/12/12 12:00:19;;;;;;;1.02;1.02;;;;;;;20.19;37.45;100357.30;1858587;75;28033;-77
2021/12/12 12:03:21;;;;;;;1.00;1.00;;;;;;;20.22;37.42;100365.13;1861115;75;34023;-74
2021/12/12 12:06:22;;;;;;;1.70;1.13;;;;;;;20.20;37.43;100363.09;1878896;75;28092;-75
2021/12/12 12:09:28;;;;;;;1.25;1.15;;;;;;;20.18;37.45;100363.81;1879223;75;28050;-75
2021/12/12 12:12:22;;;;;;;1.60;1.20;;;;;;;20.18;37.43;100362.45;1856174;76;28149;-74
2021/12/12 12:15:50;;;;;;;1.70;1.20;;;;;;;20.18;37.47;100352.90;1878631;76;28622;-74
2021/12/12 12:18:44;;;;;;;1.10;1.10;;;;;;;20.19;37.44;100353.72;1872559;74;28167;-74
2021/12/12 12:21:59;;;;;;;1.32;1.12;;;;;;;20.16;37.46;100349.53;1891659;75;28137;-73
2021/12/12 12:25:12;;;;;;;1.30;1.20;;;;;;;20.16;37.49;100350.89;1858969;76;28164;-74
2021/12/12 12:27:55;;;;;;;1.32;1.22;;;;;;;20.17;37.51;100348.98;1870262;75;28029;-74
2021/12/12 12:31:23;;;;;;;1.30;1.20;;;;;;;20.15;37.49;100346.47;1862524;75;28114;-76
2021/12/12 12:34:43;;;;;;;1.50;1.40;;;;;;;20.17;37.48;100341.65;1867502;75;28124;-75
2021/12/12 12:37:52;;;;;;;1.35;1.17;;;;;;;20.15;37.47;100341.01;1857447;77;28729;-76
2021/12/12 12:41:16;;;;;;;1.03;1.03;;;;;;;20.13;37.52;100336.28;1857633;77;28094;-76
2021/12/12 12:44:36;;;;;;;1.12;1.10;;;;;;;20.12;37.53;100335.94;1857565;77;28190;-75
2021/12/12 12:47:53;;;;;;;1.40;1.20;;;;;;;20.11;37.58;100330.70;1829934;75;28083;-74
2021/12/12 12:51:02;;;;;;;1.30;1.20;;;;;;;20.12;37.57;100330.48;1857527;77;28090;-74
2021/12/12 12:54:05;;;;;;;1.40;1.30;;;;;;;20.13;37.54;100330.82;1870431;75;28082;-75
2021/12/12 12:57:10;;;;;;;1.40;1.30;;;;;;;20.14;37.53;100328.40;1858776;75;28100;-77
2021/12/12 13:00:14;;;;;;;1.60;1.50;;;;;;;20.17;37.53;100333.47;1865586;75;28076;-76
2021/12/12 13:03:11;;;;;;;1.67;1.57;;;;;;;20.16;37.51;100324.98;1867925;75;28018;-76
2021/12/12 13:06:08;;;;;;;2.02;1.82;;;;;;;20.18;37.48;100332.95;1868037;75;28151;-75
2021/12/12 13:09:13;;;;;;;2.62;2.05;;;;;;;20.17;37.42;100320.34;1870350;75;28149;-75
2021/12/12 13:12:30;;;;;;;2.10;2.00;;;;;;;20.21;37.42;100325.20;1857749;77;28121;-76
2021/12/12 13:15:25;;;;;;;2.62;2.00;;;;;;;20.20;37.42;100323.53;1889348;75;28101;-75
2021/12/12 13:18:31;;;;;;;2.73;2.30;;;;;;;20.20;37.36;100316.72;1857505;77;28121;-75
2021/12/12 13:21:25;;;;;;;3.98;2.90;;;;;;;20.21;37.40;100314.84;1889220;75;28114;-75
2021/12/12 13:24:19;;;;;;;2.70;2.50;;;;;;;20.19;37.38;100311.44;1868186;75;28192;-74
2021/12/12 13:27:54;;;;;;;3.10;2.80;;;;;;;20.19;37.42;100305.98;1868182;75;28138;-74
2021/12/12 13:30:41;;;;;;;2.70;2.50;;;;;;;20.20;37.36;100300.86;1787100;79;28283;-76
2021/12/12 13:33:37;;;;;;;3.17;2.87;;;;;;;20.15;37.44;100300.61;1786860;80;28353;-74
2021/12/12 13:36:28;;;;;;;3.33;3.02;;;;;;;20.17;37.44;100299.38;1869312;75;28127;-74
2021/12/12 13:39:26;;;;;;;3.90;3.10;;;;;;;20.19;37.38;100301.37;1857704;77;28141;-75
2021/12/12 13:42:24;;;;;;;4.70;3.30;;;;;;;20.18;37.43;100301.58;1867298;75;28092;-74
2021/12/12 13:45:28;;;;;;;4.65;3.50;;;;;;;20.18;37.39;100297.49;1867790;75;28062;-75
2021/12/12 13:48:32;;;;;;;3.67;3.37;;;;;;;20.18;37.40;100298.86;1864644;75;28122;-74
2021/12/12 13:51:44;;;;;;;4.00;3.60;;;;;;;20.17;37.38;100303.97;1878646;75;28068;-74